Time;durP1;ratioP1;P1;durP2;ratioP2;P2;SDS_P1;SDS_P2;PMS_P1;PMS_P2;Temp;Humidity;BMP_temperature;BMP_pressure;BME280_temperature;BME280_humidity;BME280_pressure;Samples;Min_cycle;Max_cycle;Signal;HPM_P1;HPM_P2
2022/07/13 00:02:26;;;;;;;;;;;25.70;90.20;;;;;;5045421;28;19929;-57
2022/07/13 00:04:54;;;;;;;;;;;25.70;90.20;;;;;;5033929;28;19925;-57
2022/07/13 00:07:21;;;;;;;;;;;25.70;90.20;;;;;;5031077;28;20004;-56
2022/07/13 00:09:48;;;;;;;;;;;25.70;90.20;;;;;;5031280;28;19929;-54
2022/07/13 00:12:15;;;;;;;;;;;25.70;90.20;;;;;;5037640;28;19929;-53
2022/07/13 00:14:43;;;;;;;;;;;25.70;90.20;;;;;;5031134;28;19929;-51
2022/07/13 00:17:10;;;;;;;;;;;25.70;90.20;;;;;;5048161;28;19936;-56
2022/07/13 00:19:37;;;;;;;;;;;25.70;90.20;;;;;;5047123;28;20395;-55
2022/07/13 00:22:04;;;;;;;;;;;25.70;90.20;;;;;;5048121;28;19933;-54
2022/07/13 00:24:31;;;;;;;;;;;25.70;90.20;;;;;;5033090;28;19929;-53
2022/07/13 00:26:58;;;;;;;;;;;25.70;90.30;;;;;;5034957;28;19936;-52
2022/07/13 00:29:26;;;;;;;;;;;25.70;90.30;;;;;;5032728;28;20287;-54
2022/07/13 00:31:53;;;;;;;;;;;25.60;90.20;;;;;;5044678;28;19925;-54
2022/07/13 00:34:20;;;;;;;;;;;25.60;90.20;;;;;;5032048;28;19951;-53
2022/07/13 00:36:48;;;;;;;;;;;25.60;90.20;;;;;;5042753;28;20000;-54
2022/07/13 00:39:15;;;;;;;;;;;25.60;90.30;;;;;;5028018;28;20019;-54
2022/07/13 00:41:49;;;;;;;;;;;25.60;90.20;;;;;;5055660;28;19929;-54
2022/07/13 00:44:16;;;;;;;;;;;25.70;90.30;;;;;;5040803;28;19936;-52
2022/07/13 00:46:51;;;;;;;;;;;25.60;90.50;;;;;;5043874;28;19952;-57
2022/07/13 00:49:19;;;;;;;;;;;25.60;90.30;;;;;;5029831;28;19929;-55
2022/07/13 00:51:46;;;;;;;;;;;25.60;90.30;;;;;;5041730;28;19929;-55
2022/07/13 00:54:14;;;;;;;;;;;25.60;90.20;;;;;;5028986;28;19929;-54
2022/07/13 00:56:41;;;;;;;;;;;25.60;90.30;;;;;;5043888;28;19925;-58
2022/07/13 00:59:09;;;;;;;;;;;25.60;90.30;;;;;;5024184;28;19925;-56
2022/07/13 01:01:36;;;;;;;;;;;25.60;90.30;;;;;;5024946;28;19928;-55
2022/07/13 01:04:03;;;;;;;;;;;25.60;90.30;;;;;;5038579;28;19936;-53
2022/07/13 01:06:31;;;;;;;;;;;25.60;90.30;;;;;;5043092;28;19928;-56
2022/07/13 01:08:59;;;;;;;;;;;25.60;90.30;;;;;;5029359;28;19936;-56
2022/07/13 01:11:26;;;;;;;;;;;25.60;90.30;;;;;;5036160;28;19933;-53
2022/07/13 01:13:54;;;;;;;;;;;25.60;90.30;;;;;;5028470;28;20024;-55
2022/07/13 01:16:22;;;;;;;;;;;25.60;90.30;;;;;;5028675;28;19940;-55
2022/07/13 01:18:51;;;;;;;;;;;25.60;90.30;;;;;;5028726;28;19929;-55
2022/07/13 01:21:18;;;;;;;;;;;25.60;90.30;;;;;;5027523;28;19936;-51
2022/07/13 01:23:46;;;;;;;;;;;25.60;90.30;;;;;;5031716;28;19940;-52
2022/07/13 01:26:13;;;;;;;;;;;25.60;90.30;;;;;;5030568;28;19929;-57
2022/07/13 01:28:40;;;;;;;;;;;25.60;90.30;;;;;;5027548;28;20420;-54
2022/07/13 01:31:07;;;;;;;;;;;25.60;90.30;;;;;;5030866;28;19948;-56
2022/07/13 01:33:34;;;;;;;;;;;25.60;90.30;;;;;;5045379;28;19933;-58
2022/07/13 01:36:01;;;;;;;;;;;25.60;90.30;;;;;;5046628;28;20042;-57
2022/07/13 01:38:29;;;;;;;;;;;25.60;90.30;;;;;;5043809;28;19932;-56
2022/07/13 01:40:56;;;;;;;;;;;25.60;90.30;;;;;;5049853;28;19935;-55
2022/07/13 01:43:26;;;;;;;;;;;25.60;90.30;;;;;;5046344;28;19925;-56
2022/07/13 01:45:53;;;;;;;;;;;25.60;90.30;;;;;;5029255;28;19940;-55
2022/07/13 01:48:21;;;;;;;;;;;25.60;90.30;;;;;;5031312;28;19932;-56
2022/07/13 01:50:50;;;;;;;;;;;25.60;90.30;;;;;;5036767;28;20308;-56
2022/07/13 01:53:18;;;;;;;;;;;25.60;90.40;;;;;;5045295;28;20459;-53
2022/07/13 01:55:45;;;;;;;;;;;25.60;90.30;;;;;;5049274;28;19940;-55
2022/07/13 01:58:12;;;;;;;;;;;25.60;90.30;;;;;;5030031;28;19940;-58
2022/07/13 02:00:39;;;;;;;;;;;25.50;90.30;;;;;;5023756;28;19936;-57
2022/07/13 02:03:07;;;;;;;;;;;25.50;90.30;;;;;;5037469;28;19929;-52
2022/07/13 02:05:34;;;;;;;;;;;25.60;90.40;;;;;;5025507;28;19935;-54
2022/07/13 02:08:01;;;;;;;;;;;25.60;90.40;;;;;;5045793;28;19929;-55
2022/07/13 02:10:35;;;;;;;;;;;25.50;90.30;;;;;;5028095;28;19956;-56
2022/07/13 02:13:04;;;;;;;;;;;25.50;90.30;;;;;;5043392;28;20316;-55
2022/07/13 02:15:31;;;;;;;;;;;25.50;90.40;;;;;;5022054;28;19929;-55
2022/07/13 02:17:58;;;;;;;;;;;25.50;90.30;;;;;;5028405;28;19925;-56
2022/07/13 02:20:26;;;;;;;;;;;25.50;90.40;;;;;;5020849;28;20391;-55
2022/07/13 02:22:53;;;;;;;;;;;25.50;90.40;;;;;;5046193;28;20285;-53
2022/07/13 02:25:21;;;;;;;;;;;25.50;90.40;;;;;;5041263;28;20404;-53
2022/07/13 02:27:48;;;;;;;;;;;25.50;90.40;;;;;;5037067;28;20688;-55
2022/07/13 02:30:15;;;;;;;;;;;25.50;90.50;;;;;;5042650;28;19933;-56
2022/07/13 02:32:44;;;;;;;;;;;25.50;90.50;;;;;;5022268;28;20412;-55
2022/07/13 02:35:12;;;;;;;;;;;25.50;90.50;;;;;;5012272;28;19936;-56
2022/07/13 02:37:40;;;;;;;;;;;25.50;90.50;;;;;;5038023;28;20301;-58
2022/07/13 02:40:08;;;;;;;;;;;25.50;90.50;;;;;;5037020;28;20025;-54
2022/07/13 02:42:35;;;;;;;;;;;25.50;90.50;;;;;;5034310;28;19925;-54
2022/07/13 02:45:03;;;;;;;;;;;25.50;90.50;;;;;;5032488;28;20435;-55
2022/07/13 02:47:31;;;;;;;;;;;25.50;90.50;;;;;;5028974;28;20343;-57
2022/07/13 02:50:00;;;;;;;;;;;25.50;90.60;;;;;;5027516;28;20262;-56
2022/07/13 02:52:27;;;;;;;;;;;25.50;90.50;;;;;;5035481;28;19929;-56
2022/07/13 02:54:54;;;;;;;;;;;25.50;90.60;;;;;;5029814;28;20526;-54
2022/07/13 02:57:21;;;;;;;;;;;25.50;90.50;;;;;;5042678;28;19952;-58
2022/07/13 02:59:53;;;;;;;;;;;25.50;90.50;;;;;;5019505;28;19933;-54
2022/07/13 03:02:22;;;;;;;;;;;25.50;90.60;;;;;;5011386;28;19929;-57
2022/07/13 03:04:49;;;;;;;;;;;25.40;90.50;;;;;;5027525;28;19936;-58
2022/07/13 03:07:17;;;;;;;;;;;25.40;90.60;;;;;;5027560;28;19929;-56
2022/07/13 03:09:44;;;;;;;;;;;25.50;90.60;;;;;;5034263;28;19955;-58
2022/07/13 03:12:12;;;;;;;;;;;25.50;90.50;;;;;;5023039;28;20361;-55
2022/07/13 03:14:39;;;;;;;;;;;25.50;90.50;;;;;;5010941;28;19928;-59
2022/07/13 03:17:06;;;;;;;;;;;25.50;90.50;;;;;;5027704;28;20321;-56
2022/07/13 03:19:34;;;;;;;;;;;25.50;90.50;;;;;;5031571;28;19933;-57
2022/07/13 03:22:02;;;;;;;;;;;25.50;90.40;;;;;;5024911;28;19929;-57
2022/07/13 03:24:29;;;;;;;;;;;25.50;90.50;;;;;;5015983;28;19928;-58
2022/07/13 03:26:59;;;;;;;;;;;25.50;90.40;;;;;;5040647;28;20389;-58
2022/07/13 03:29:26;;;;;;;;;;;25.50;90.40;;;;;;5032942;28;19933;-55
2022/07/13 03:31:54;;;;;;;;;;;25.50;90.40;;;;;;5029551;28;19933;-57
2022/07/13 03:34:21;;;;;;;;;;;25.40;90.40;;;;;;5030436;28;19933;-56
2022/07/13 03:36:49;;;;;;;;;;;25.50;90.40;;;;;;5031272;28;19935;-57
2022/07/13 03:39:17;;;;;;;;;;;25.40;90.40;;;;;;5041441;28;19932;-56
2022/07/13 03:41:45;;;;;;;;;;;25.50;90.50;;;;;;5042799;28;19929;-55
2022/07/13 03:44:13;;;;;;;;;;;25.40;90.50;;;;;;5014956;28;20353;-54
2022/07/13 03:46:40;;;;;;;;;;;25.40;90.50;;;;;;5036925;28;19929;-58
2022/07/13 03:49:08;;;;;;;;;;;25.40;90.40;;;;;;5036773;28;19924;-57
2022/07/13 03:51:36;;;;;;;;;;;25.40;90.40;;;;;;5023208;28;19940;-57
2022/07/13 03:54:04;;;;;;;;;;;25.40;90.40;;;;;;5012864;28;19940;-58
2022/07/13 03:56:31;;;;;;;;;;;25.50;90.50;;;;;;5022998;28;19940;-56
2022/07/13 03:58:59;;;;;;;;;;;25.40;90.50;;;;;;5024017;28;19935;-56
2022/07/13 04:01:26;;;;;;;;;;;25.40;90.40;;;;;;5018871;28;19933;-57
2022/07/13 04:03:54;;;;;;;;;;;25.40;90.50;;;;;;5012606;28;19929;-57
2022/07/13 04:06:22;;;;;;;;;;;25.40;90.50;;;;;;5036174;28;19929;-56
2022/07/13 04:08:49;;;;;;;;;;;25.40;90.50;;;;;;5028959;28;19968;-55
2022/07/13 04:11:17;;;;;;;;;;;25.40;90.50;;;;;;5018592;28;19937;-55
2022/07/13 04:13:44;;;;;;;;;;;25.40;90.40;;;;;;5012592;28;19929;-56
2022/07/13 04:16:12;;;;;;;;;;;25.40;90.40;;;;;;5043226;28;19928;-54
2022/07/13 04:18:40;;;;;;;;;;;25.40;90.40;;;;;;5038349;28;19925;-57
2022/07/13 04:21:10;;;;;;;;;;;25.50;90.50;;;;;;5031939;28;19925;-56
2022/07/13 04:23:38;;;;;;;;;;;25.40;90.40;;;;;;5027110;28;20004;-55
2022/07/13 04:26:06;;;;;;;;;;;25.40;90.40;;;;;;5048454;28;20285;-56
2022/07/13 04:28:33;;;;;;;;;;;25.40;90.40;;;;;;5033633;28;20419;-56
2022/07/13 04:31:02;;;;;;;;;;;25.40;90.40;;;;;;5030592;28;19925;-56
2022/07/13 04:33:33;;;;;;;;;;;25.40;90.40;;;;;;5029472;28;19928;-56
2022/07/13 04:36:08;;;;;;;;;;;25.40;90.40;;;;;;5028157;28;19925;-53
2022/07/13 04:38:37;;;;;;;;;;;25.40;90.40;;;;;;5034559;28;19929;-56
2022/07/13 04:41:05;;;;;;;;;;;25.40;90.40;;;;;;5038839;28;19925;-58
2022/07/13 04:43:35;;;;;;;;;;;25.40;90.50;;;;;;5029240;28;19929;-58
2022/07/13 04:46:04;;;;;;;;;;;25.40;90.40;;;;;;5027695;28;20313;-55
2022/07/13 04:48:32;;;;;;;;;;;25.40;90.40;;;;;;5033692;28;19928;-55
2022/07/13 04:51:00;;;;;;;;;;;25.40;90.40;;;;;;5030239;28;20302;-56
2022/07/13 04:53:30;;;;;;;;;;;25.40;90.40;;;;;;5032550;28;19932;-58
2022/07/13 04:55:57;;;;;;;;;;;25.40;90.40;;;;;;5034724;28;20325;-57
2022/07/13 04:58:26;;;;;;;;;;;25.40;90.50;;;;;;5028459;28;19936;-57
2022/07/13 05:00:53;;;;;;;;;;;25.40;90.50;;;;;;5028533;28;20304;-55
2022/07/13 05:03:40;;;;;;;;;;;25.40;90.50;;;;;;5029507;28;19943;-55
2022/07/13 05:06:08;;;;;;;;;;;25.40;90.50;;;;;;5035920;28;19937;-55
2022/07/13 05:08:35;;;;;;;;;;;25.40;90.50;;;;;;5027708;28;19932;-52
2022/07/13 05:11:02;;;;;;;;;;;25.40;90.50;;;;;;5035593;28;20316;-56
2022/07/13 05:13:30;;;;;;;;;;;25.40;90.50;;;;;;5028342;28;20475;-54
2022/07/13 05:15:59;;;;;;;;;;;25.40;90.50;;;;;;5043697;28;19951;-55
2022/07/13 05:18:27;;;;;;;;;;;25.40;90.50;;;;;;5018443;28;19983;-54
2022/07/13 05:20:58;;;;;;;;;;;25.40;90.50;;;;;;5033640;28;19925;-57
2022/07/13 05:23:32;;;;;;;;;;;25.40;90.50;;;;;;5046357;28;19948;-61
2022/07/13 05:26:05;;;;;;;;;;;25.40;90.50;;;;;;5020874;28;19928;-55
2022/07/13 05:28:32;;;;;;;;;;;25.40;90.50;;;;;;5032168;28;19940;-56
2022/07/13 05:31:00;;;;;;;;;;;25.40;90.50;;;;;;5015519;28;19936;-55
2022/07/13 05:33:29;;;;;;;;;;;25.40;90.50;;;;;;5028947;28;19936;-56
2022/07/13 05:35:57;;;;;;;;;;;25.40;90.50;;;;;;5030342;28;19940;-55
2022/07/13 05:38:24;;;;;;;;;;;25.40;90.50;;;;;;5031820;28;19929;-54
2022/07/13 05:40:54;;;;;;;;;;;25.30;90.50;;;;;;5029804;28;20300;-55
2022/07/13 05:43:21;;;;;;;;;;;25.30;90.50;;;;;;5028067;28;19949;-54
2022/07/13 05:45:49;;;;;;;;;;;25.30;90.50;;;;;;5004893;28;20185;-55
2022/07/13 05:48:16;;;;;;;;;;;25.30;90.50;;;;;;5012341;28;19929;-56
2022/07/13 05:50:44;;;;;;;;;;;25.30;90.50;;;;;;5039733;28;19936;-55
2022/07/13 05:53:11;;;;;;;;;;;25.30;90.50;;;;;;5025053;28;19928;-55
2022/07/13 05:55:38;;;;;;;;;;;25.30;90.50;;;;;;5034927;28;19929;-54
2022/07/13 05:58:06;;;;;;;;;;;25.30;90.60;;;;;;5024196;28;19926;-54
2022/07/13 06:00:33;;;;;;;;;;;25.30;90.50;;;;;;5033707;28;19924;-55
2022/07/13 06:03:00;;;;;;;;;;;25.30;90.60;;;;;;5029981;28;20335;-54
2022/07/13 06:05:27;;;;;;;;;;;25.30;90.60;;;;;;5032249;28;19933;-57
2022/07/13 06:07:55;;;;;;;;;;;25.30;90.60;;;;;;5036724;28;19936;-58
2022/07/13 06:10:23;;;;;;;;;;;25.30;90.60;;;;;;5030503;28;19925;-56
2022/07/13 06:12:50;;;;;;;;;;;25.30;90.60;;;;;;5051001;28;19929;-55
2022/07/13 06:15:18;;;;;;;;;;;25.30;90.60;;;;;;5040411;28;19932;-57
2022/07/13 06:17:45;;;;;;;;;;;25.30;90.60;;;;;;5027180;28;19930;-58
2022/07/13 06:20:12;;;;;;;;;;;25.30;90.60;;;;;;5035106;28;19936;-52
2022/07/13 06:22:39;;;;;;;;;;;25.30;90.60;;;;;;5032361;28;19960;-53
2022/07/13 06:25:07;;;;;;;;;;;25.30;90.60;;;;;;5045536;28;19929;-54
2022/07/13 06:27:34;;;;;;;;;;;25.30;90.60;;;;;;5034105;28;19936;-56
2022/07/13 06:30:03;;;;;;;;;;;25.30;90.60;;;;;;5034387;28;19929;-53
2022/07/13 06:32:30;;;;;;;;;;;25.30;90.60;;;;;;5033712;28;19928;-56
2022/07/13 06:34:57;;;;;;;;;;;25.30;90.60;;;;;;5039440;28;19933;-54
2022/07/13 06:37:27;;;;;;;;;;;25.30;90.60;;;;;;5027145;28;19933;-56
2022/07/13 06:40:12;;;;;;;;;;;25.30;90.60;;;;;;5033930;28;19929;-54
2022/07/13 06:42:43;;;;;;;;;;;25.30;90.70;;;;;;5037324;28;20427;-54
2022/07/13 06:45:10;;;;;;;;;;;25.20;90.60;;;;;;5042246;28;19928;-57
2022/07/13 06:47:38;;;;;;;;;;;25.30;90.60;;;;;;5029625;28;19933;-56
2022/07/13 06:50:06;;;;;;;;;;;25.30;90.60;;;;;;5040268;28;19944;-54
2022/07/13 06:52:33;;;;;;;;;;;25.30;90.70;;;;;;5026745;28;19956;-54
2022/07/13 06:55:00;;;;;;;;;;;25.30;90.60;;;;;;5036321;28;19937;-55
2022/07/13 06:57:27;;;;;;;;;;;25.30;90.60;;;;;;5037558;28;19932;-52
2022/07/13 06:59:54;;;;;;;;;;;25.30;90.70;;;;;;5038519;28;19929;-55
2022/07/13 07:02:22;;;;;;;;;;;25.30;90.70;;;;;;5030225;28;19929;-57
2022/07/13 07:04:49;;;;;;;;;;;25.30;90.60;;;;;;5042091;28;20460;-53
2022/07/13 07:07:16;;;;;;;;;;;25.30;90.60;;;;;;5032368;28;20329;-53
2022/07/13 07:09:43;;;;;;;;;;;25.40;90.60;;;;;;5035578;28;19925;-53
2022/07/13 07:12:10;;;;;;;;;;;25.30;90.60;;;;;;5059532;28;19932;-57
2022/07/13 07:14:38;;;;;;;;;;;25.40;90.60;;;;;;5046437;28;19933;-56
2022/07/13 07:17:05;;;;;;;;;;;25.40;90.60;;;;;;5047492;28;19929;-54
2022/07/13 07:19:32;;;;;;;;;;;25.40;90.60;;;;;;5046336;28;19929;-55
2022/07/13 07:22:00;;;;;;;;;;;25.40;90.60;;;;;;5036392;28;20412;-54
2022/07/13 07:24:27;;;;;;;;;;;25.40;90.60;;;;;;5030713;28;19929;-55
2022/07/13 07:26:54;;;;;;;;;;;25.40;90.60;;;;;;5040673;28;19929;-57
2022/07/13 07:29:22;;;;;;;;;;;25.40;90.60;;;;;;5036791;28;19933;-55
2022/07/13 07:31:50;;;;;;;;;;;25.40;90.90;;;;;;5021390;28;19936;-55
2022/07/13 07:34:17;;;;;;;;;;;25.40;90.60;;;;;;5038177;28;19948;-52
2022/07/13 07:36:44;;;;;;;;;;;25.40;90.60;;;;;;5039672;28;19944;-54
2022/07/13 07:39:12;;;;;;;;;;;25.50;90.60;;;;;;5031244;28;20209;-56
2022/07/13 07:41:40;;;;;;;;;;;25.50;90.60;;;;;;5026321;28;19929;-55
2022/07/13 07:44:08;;;;;;;;;;;25.50;90.60;;;;;;5037378;28;19928;-58
2022/07/13 07:46:35;;;;;;;;;;;25.50;90.60;;;;;;5034640;28;20385;-55
2022/07/13 07:49:03;;;;;;;;;;;25.50;90.60;;;;;;5031980;28;20379;-57
2022/07/13 07:51:30;;;;;;;;;;;25.50;90.60;;;;;;5037322;28;20335;-57
2022/07/13 07:54:17;;;;;;;;;;;25.50;90.60;;;;;;5035726;28;20408;-55
2022/07/13 07:56:45;;;;;;;;;;;25.50;90.60;;;;;;5028095;28;20416;-56
2022/07/13 07:59:12;;;;;;;;;;;25.50;90.70;;;;;;5036094;28;19924;-56
2022/07/13 08:01:39;;;;;;;;;;;25.40;90.60;;;;;;5034889;28;19936;-60
2022/07/13 08:04:07;;;;;;;;;;;25.50;91.00;;;;;;5039936;28;20312;-54
2022/07/13 08:06:35;;;;;;;;;;;25.40;90.70;;;;;;5024307;28;19936;-55
2022/07/13 08:09:02;;;;;;;;;;;25.40;90.70;;;;;;5045551;28;21594;-57
2022/07/13 08:11:30;;;;;;;;;;;25.50;90.70;;;;;;5046784;28;19935;-52
2022/07/13 08:13:57;;;;;;;;;;;25.50;90.70;;;;;;5045275;28;19992;-58
2022/07/13 08:16:24;;;;;;;;;;;25.40;90.70;;;;;;5034494;28;19932;-52
2022/07/13 08:18:51;;;;;;;;;;;25.40;90.70;;;;;;5039372;28;19966;-53
2022/07/13 08:21:39;;;;;;;;;;;25.40;90.70;;;;;;5027461;28;20362;-58
2022/07/13 08:24:06;;;;;;;;;;;25.40;90.70;;;;;;5030911;28;19929;-52
2022/07/13 08:26:34;;;;;;;;;;;25.50;90.70;;;;;;5031163;28;19948;-52
2022/07/13 08:29:02;;;;;;;;;;;25.40;90.70;;;;;;5031114;28;20399;-56
2022/07/13 08:31:29;;;;;;;;;;;25.50;90.70;;;;;;5032083;28;19929;-54
2022/07/13 08:39:28;;;;;;;;;;;25.50;90.80;;;;;;5033210;28;19936;-55
2022/07/13 08:41:56;;;;;;;;;;;25.40;90.70;;;;;;5056935;28;20418;-57
2022/07/13 08:44:24;;;;;;;;;;;25.40;90.70;;;;;;5047366;28;19924;-58
2022/07/13 08:46:52;;;;;;;;;;;25.40;90.70;;;;;;5042304;28;19936;-55
2022/07/13 08:49:21;;;;;;;;;;;25.40;90.70;;;;;;5020398;28;20348;-55
2022/07/13 08:51:49;;;;;;;;;;;25.50;90.70;;;;;;5008577;28;19925;-55
2022/07/13 08:54:16;;;;;;;;;;;25.50;90.70;;;;;;5019204;28;20041;-55
2022/07/13 08:56:43;;;;;;;;;;;25.50;90.70;;;;;;5037190;28;19948;-56
2022/07/13 08:59:11;;;;;;;;;;;25.40;90.70;;;;;;5029806;28;19925;-56
2022/07/13 09:01:38;;;;;;;;;;;25.40;90.70;;;;;;5036051;28;19929;-55
2022/07/13 09:04:10;;;;;;;;;;;25.50;90.80;;;;;;5037788;28;19993;-53
2022/07/13 09:06:43;;;;;;;;;;;25.40;90.70;;;;;;5035315;28;19929;-55
2022/07/13 09:09:24;;;;;;;;;;;25.50;90.80;;;;;;5037547;28;20384;-53
2022/07/13 09:12:16;;;;;;;;;;;25.40;90.70;;;;;;5044928;28;19929;-55
2022/07/13 09:14:48;;;;;;;;;;;25.50;90.70;;;;;;5047322;28;19925;-55
2022/07/13 09:17:39;;;;;;;;;;;25.50;90.70;;;;;;5041387;28;20400;-52
2022/07/13 09:20:12;;;;;;;;;;;25.50;90.70;;;;;;5030704;28;19928;-55
2022/07/13 09:22:53;;;;;;;;;;;25.50;90.70;;;;;;5032027;28;19939;-56
2022/07/13 09:25:37;;;;;;;;;;;25.50;90.70;;;;;;5033873;28;19928;-57
2022/07/13 09:28:06;;;;;;;;;;;25.60;90.70;;;;;;5037878;28;19947;-52
2022/07/13 09:30:35;;;;;;;;;;;25.50;90.60;;;;;;5033283;28;20423;-55
2022/07/13 09:33:02;;;;;;;;;;;25.50;90.60;;;;;;5027911;28;19929;-54
2022/07/13 09:35:39;;;;;;;;;;;25.60;90.70;;;;;;5036312;28;19929;-56
2022/07/13 09:38:07;;;;;;;;;;;25.60;90.70;;;;;;5030537;28;19929;-56
2022/07/13 09:40:34;;;;;;;;;;;25.60;90.70;;;;;;5040433;28;19936;-55
2022/07/13 09:48:33;;;;;;;;;;;25.60;90.70;;;;;;5029507;28;19933;-57
2022/07/13 09:51:00;;;;;;;;;;;25.60;90.70;;;;;;5040704;28;20316;-56
2022/07/13 09:53:31;;;;;;;;;;;25.60;90.70;;;;;;5038111;28;20729;-53
2022/07/13 09:56:00;;;;;;;;;;;25.60;90.70;;;;;;5048291;28;20311;-57
2022/07/13 09:58:27;;;;;;;;;;;25.60;90.60;;;;;;5034095;28;20324;-52
2022/07/13 10:00:56;;;;;;;;;;;25.60;90.60;;;;;;5032391;28;19935;-56
2022/07/13 10:03:24;;;;;;;;;;;25.60;90.60;;;;;;5034552;28;19948;-56
2022/07/13 10:05:52;;;;;;;;;;;25.60;90.60;;;;;;5030221;28;19929;-54
2022/07/13 10:08:19;;;;;;;;;;;25.60;90.60;;;;;;5027828;28;19932;-57
2022/07/13 10:10:47;;;;;;;;;;;25.70;90.70;;;;;;5038772;28;19948;-55
2022/07/13 10:13:14;;;;;;;;;;;25.60;90.60;;;;;;5038432;28;19936;-58
2022/07/13 10:15:41;;;;;;;;;;;25.60;90.60;;;;;;5046013;28;19943;-58
2022/07/13 10:18:10;;;;;;;;;;;25.60;90.60;;;;;;5028960;28;19932;-53
2022/07/13 10:20:41;;;;;;;;;;;25.70;90.70;;;;;;5049053;28;19928;-52
2022/07/13 10:23:09;;;;;;;;;;;25.60;90.60;;;;;;5029899;28;20377;-56
2022/07/13 10:25:56;;;;;;;;;;;25.70;90.70;;;;;;5023411;28;19925;-56
2022/07/13 10:28:27;;;;;;;;;;;25.70;90.70;;;;;;5029003;28;20304;-57
2022/07/13 10:30:55;;;;;;;;;;;25.60;90.60;;;;;;5035968;28;19935;-56
2022/07/13 10:33:24;;;;;;;;;;;25.60;90.60;;;;;;5039581;28;19936;-52
2022/07/13 10:35:53;;;;;;;;;;;25.70;90.70;;;;;;5032277;28;19928;-53
2022/07/13 10:38:27;;;;;;;;;;;25.70;90.80;;;;;;5031368;28;19960;-54
2022/07/13 10:41:13;;;;;;;;;;;25.70;90.70;;;;;;5046699;28;19928;-55
2022/07/13 10:43:40;;;;;;;;;;;25.70;90.70;;;;;;5033153;28;19989;-56
2022/07/13 10:46:09;;;;;;;;;;;25.70;90.70;;;;;;5028009;28;20329;-56
2022/07/13 10:48:56;;;;;;;;;;;25.70;90.70;;;;;;5040566;28;19929;-57
2022/07/13 10:51:23;;;;;;;;;;;25.70;90.60;;;;;;5037084;28;19925;-54
2022/07/13 10:53:52;;;;;;;;;;;25.70;90.60;;;;;;5038804;28;20012;-54
2022/07/13 10:56:19;;;;;;;;;;;25.70;90.60;;;;;;5027384;28;20470;-54
2022/07/13 10:58:48;;;;;;;;;;;25.70;90.60;;;;;;5033669;28;19929;-58
2022/07/13 11:01:49;;;;;;;;;;;25.70;90.60;;;;;;5027232;28;19952;-58
2022/07/13 11:04:18;;;;;;;;;;;25.70;90.60;;;;;;5010860;28;19925;-58
2022/07/13 11:07:05;;;;;;;;;;;25.70;90.60;;;;;;5024526;28;19929;-56
2022/07/13 11:09:32;;;;;;;;;;;25.80;90.60;;;;;;5040027;28;19948;-56
2022/07/13 11:11:59;;;;;;;;;;;25.80;90.60;;;;;;5045183;28;19932;-58
2022/07/13 11:14:36;;;;;;;;;;;25.80;90.60;;;;;;5012653;28;19949;-58
2022/07/13 11:17:13;;;;;;;;;;;25.80;90.60;;;;;;5028699;28;20293;-58
2022/07/13 11:19:57;;;;;;;;;;;25.80;90.60;;;;;;5038819;28;19932;-57
2022/07/13 11:22:25;;;;;;;;;;;25.80;90.60;;;;;;5034703;28;19928;-59
2022/07/13 11:25:15;;;;;;;;;;;25.80;90.60;;;;;;5037331;28;19925;-58
2022/07/13 11:27:58;;;;;;;;;;;25.80;90.60;;;;;;5011337;28;19936;-57
2022/07/13 11:30:27;;;;;;;;;;;25.80;90.60;;;;;;5043727;28;20392;-54
2022/07/13 11:32:54;;;;;;;;;;;25.80;90.60;;;;;;5033787;28;19929;-57
2022/07/13 11:35:21;;;;;;;;;;;25.80;90.60;;;;;;5020633;28;20398;-56
2022/07/13 11:37:49;;;;;;;;;;;25.80;90.60;;;;;;5034753;28;20486;-56
2022/07/13 11:40:32;;;;;;;;;;;25.80;90.60;;;;;;5044668;28;19928;-57
2022/07/13 11:43:00;;;;;;;;;;;25.80;90.60;;;;;;5027030;28;19936;-57
2022/07/13 11:45:31;;;;;;;;;;;25.80;90.60;;;;;;5033125;28;20352;-58
2022/07/13 11:47:59;;;;;;;;;;;25.80;90.60;;;;;;5030340;28;19933;-56
2022/07/13 11:50:39;;;;;;;;;;;25.80;90.60;;;;;;5042877;28;19928;-57
2022/07/13 11:53:06;;;;;;;;;;;25.80;90.60;;;;;;5049809;28;19959;-59
2022/07/13 11:55:35;;;;;;;;;;;25.80;90.60;;;;;;5040949;28;19929;-57
2022/07/13 11:58:03;;;;;;;;;;;25.80;90.60;;;;;;5043778;28;19929;-55
2022/07/13 12:00:30;;;;;;;;;;;25.80;90.60;;;;;;5035329;28;20234;-56
2022/07/13 12:02:57;;;;;;;;;;;25.80;90.70;;;;;;5041282;28;19929;-52
2022/07/13 12:05:26;;;;;;;;;;;25.80;90.60;;;;;;5034993;28;19949;-53
2022/07/13 12:08:00;;;;;;;;;;;25.80;90.60;;;;;;5035884;28;19925;-56
2022/07/13 12:10:28;;;;;;;;;;;25.80;90.60;;;;;;5042421;28;20396;-56
2022/07/13 12:12:58;;;;;;;;;;;25.80;90.60;;;;;;5018529;28;19931;-58
2022/07/13 12:15:26;;;;;;;;;;;25.90;90.60;;;;;;5035114;28;19929;-55
2022/07/13 12:17:53;;;;;;;;;;;25.80;90.60;;;;;;5048820;28;20288;-57
2022/07/13 12:20:22;;;;;;;;;;;25.80;90.50;;;;;;5047200;28;19958;-56
2022/07/13 12:22:50;;;;;;;;;;;25.80;90.50;;;;;;5029537;28;19936;-57
2022/07/13 12:25:26;;;;;;;;;;;25.90;90.50;;;;;;5035443;28;19925;-56
2022/07/13 12:27:55;;;;;;;;;;;25.80;90.50;;;;;;5039721;28;19925;-55
2022/07/13 12:30:22;;;;;;;;;;;25.90;90.50;;;;;;5011954;28;19929;-56
2022/07/13 12:32:58;;;;;;;;;;;25.90;90.50;;;;;;5039032;28;19929;-57
2022/07/13 12:35:36;;;;;;;;;;;25.90;90.50;;;;;;5029952;28;19932;-59
2022/07/13 12:38:07;;;;;;;;;;;25.90;90.40;;;;;;5030281;28;19940;-59
2022/07/13 12:40:39;;;;;;;;;;;25.90;90.40;;;;;;5028554;28;19929;-56
2022/07/13 12:43:18;;;;;;;;;;;25.90;90.40;;;;;;5053205;28;19925;-52
2022/07/13 12:45:50;;;;;;;;;;;25.90;90.30;;;;;;5032117;28;19928;-55
2022/07/13 12:48:18;;;;;;;;;;;26.00;90.30;;;;;;5031624;28;19932;-56
2022/07/13 12:51:12;;;;;;;;;;;26.00;90.30;;;;;;5030168;28;19929;-55
2022/07/13 12:53:46;;;;;;;;;;;26.00;90.30;;;;;;5032215;28;19929;-56
2022/07/13 12:56:14;;;;;;;;;;;26.00;90.30;;;;;;5026029;28;20435;-57
2022/07/13 12:58:47;;;;;;;;;;;26.00;90.20;;;;;;5028816;28;19933;-56
2022/07/13 13:01:27;;;;;;;;;;;26.10;90.30;;;;;;5037088;28;19936;-60
2022/07/13 13:03:55;;;;;;;;;;;26.00;90.20;;;;;;5042789;28;19929;-58
2022/07/13 13:06:30;;;;;;;;;;;26.10;90.20;;;;;;5038291;28;20304;-55
2022/07/13 13:09:04;;;;;;;;;;;26.10;90.20;;;;;;5031008;28;19929;-57
2022/07/13 13:11:32;;;;;;;;;;;26.10;90.20;;;;;;5045247;28;20371;-56
2022/07/13 13:13:59;;;;;;;;;;;26.10;90.10;;;;;;5033186;28;19929;-58
2022/07/13 13:16:26;;;;;;;;;;;26.10;90.10;;;;;;5036407;28;19936;-54
2022/07/13 13:18:54;;;;;;;;;;;26.10;90.10;;;;;;5028768;28;19932;-58
2022/07/13 13:21:21;;;;;;;;;;;26.10;90.10;;;;;;5040519;28;19936;-57
2022/07/13 13:23:48;;;;;;;;;;;26.10;90.10;;;;;;5047428;28;19929;-56
2022/07/13 13:26:15;;;;;;;;;;;26.20;90.10;;;;;;5036211;28;19929;-54
2022/07/13 13:31:42;;;;;;;;;;;26.20;90.00;;;;;;5047575;28;19929;-55
2022/07/13 13:34:11;;;;;;;;;;;26.20;90.00;;;;;;5041409;28;19936;-54
2022/07/13 13:36:47;;;;;;;;;;;26.30;90.00;;;;;;5042454;28;19929;-57
2022/07/13 13:39:14;;;;;;;;;;;26.30;89.90;;;;;;5034567;28;19924;-56
2022/07/13 13:41:41;;;;;;;;;;;26.30;89.80;;;;;;5043585;28;19932;-54
2022/07/13 13:44:08;;;;;;;;;;;26.30;89.70;;;;;;5040406;28;19933;-53
2022/07/13 13:46:35;;;;;;;;;;;26.30;89.60;;;;;;5029604;28;19925;-56
2022/07/13 13:49:03;;;;;;;;;;;26.30;89.50;;;;;;5027904;28;20312;-55
2022/07/13 13:51:30;;;;;;;;;;;26.40;89.50;;;;;;5020402;28;20289;-53
2022/07/13 13:54:17;;;;;;;;;;;26.40;89.40;;;;;;5045236;28;20312;-52
2022/07/13 13:56:44;;;;;;;;;;;26.50;89.30;;;;;;5039470;28;20400;-56
2022/07/13 13:59:11;;;;;;;;;;;26.60;89.10;;;;;;5032541;28;19935;-57
2022/07/13 14:01:39;;;;;;;;;;;26.60;89.00;;;;;;5024718;28;19932;-54
2022/07/13 14:04:14;;;;;;;;;;;26.60;89.00;;;;;;5027826;28;20388;-54
2022/07/13 14:06:42;;;;;;;;;;;26.60;89.00;;;;;;5038816;28;19939;-56
2022/07/13 14:09:09;;;;;;;;;;;26.60;89.00;;;;;;5028128;28;19936;-57
2022/07/13 14:11:38;;;;;;;;;;;26.60;89.10;;;;;;5041330;28;19936;-58
2022/07/13 14:14:07;;;;;;;;;;;26.60;89.10;;;;;;5045790;28;19929;-54
2022/07/13 14:16:34;;;;;;;;;;;26.60;89.20;;;;;;5032163;28;21264;-48
2022/07/13 14:19:01;;;;;;;;;;;26.60;89.30;;;;;;5040775;28;19933;-56
2022/07/13 14:21:29;;;;;;;;;;;26.50;89.30;;;;;;5046169;28;19925;-57
2022/07/13 14:23:56;;;;;;;;;;;26.50;89.30;;;;;;5028514;28;20399;-57
2022/07/13 14:26:43;;;;;;;;;;;26.50;89.30;;;;;;5033768;28;19936;-53
2022/07/13 14:29:21;;;;;;;;;;;26.50;89.30;;;;;;5042885;28;19929;-54
2022/07/13 14:31:48;;;;;;;;;;;26.60;89.20;;;;;;5032334;28;20385;-55
2022/07/13 14:34:35;;;;;;;;;;;26.60;89.20;;;;;;5044289;28;19932;-53
2022/07/13 14:37:06;;;;;;;;;;;26.60;89.00;;;;;;5033485;28;20284;-56
2022/07/13 14:39:34;;;;;;;;;;;26.80;88.80;;;;;;5044870;28;19928;-55
2022/07/13 14:42:02;;;;;;;;;;;26.80;88.70;;;;;;5042994;28;19936;-57
2022/07/13 14:44:29;;;;;;;;;;;26.90;88.50;;;;;;5041192;28;19929;-52